Time;durP1;ratioP1;P1;durP2;ratioP2;P2;SDS_P1;SDS_P2;PMS_P1;PMS_P2;Temp;Humidity;BMP_temperature;BMP_pressure;BME280_temperature;BME280_humidity;BME280_pressure;Samples;Min_cycle;Max_cycle;Signal;HPM_P1;HPM_P2
2023/12/24 00:00:00;;;;;;;16.58;2.67;;;;;;;14.09;53.89;100082.25;682148;28;1496;-86
2023/12/24 00:00:20;;;;;;;16.33;2.53;;;;;;;14.00;53.62;100090.97;685568;28;1274;-86
2023/12/24 00:00:41;;;;;;;3.30;2.50;;;;;;;14.02;53.45;100097.09;685667;28;1012;-86
2023/12/24 00:01:02;;;;;;;3.90;2.80;;;;;;;13.93;53.31;100095.34;679865;29;1698;-87
2023/12/24 00:01:22;;;;;;;5.28;2.88;;;;;;;14.10;53.37;100091.88;680153;29;1094;-86
2023/12/24 00:01:44;;;;;;;5.30;2.97;;;;;;;14.07;53.98;100076.16;679821;29;1205;-86
2023/12/24 00:02:04;;;;;;;3.55;2.70;;;;;;;14.12;54.04;100077.03;685712;28;1065;-86
2023/12/24 00:02:25;;;;;;;3.60;2.80;;;;;;;14.14;54.12;100079.69;685676;28;1154;-88
2023/12/24 00:02:46;;;;;;;3.90;2.87;;;;;;;14.21;54.26;100102.44;687849;28;1508;-86
2023/12/24 00:03:06;;;;;;;3.47;2.50;;;;;;;14.11;53.98;100104.16;685516;28;989;-85
2023/12/24 00:03:27;;;;;;;3.38;2.50;;;;;;;14.08;53.65;100101.50;685691;28;1404;-88
2023/12/24 00:03:47;;;;;;;3.07;2.20;;;;;;;14.05;53.47;100086.63;681407;28;1611;-87
2023/12/24 00:04:08;;;;;;;2.72;2.15;;;;;;;14.05;53.42;100090.97;683678;28;1512;-86
2023/12/24 00:04:29;;;;;;;2.90;2.00;;;;;;;14.03;53.22;100080.50;680415;29;864;-86
2023/12/24 00:04:50;;;;;;;3.27;2.00;;;;;;;14.04;53.24;100094.47;682727;28;1492;-87
2023/12/24 00:05:10;;;;;;;3.20;2.10;;;;;;;14.11;53.26;100102.44;680127;29;1138;-87
2023/12/24 00:05:31;;;;;;;2.85;2.00;;;;;;;14.00;53.07;100111.09;680419;29;749;-87
2023/12/24 00:05:52;;;;;;;2.60;1.90;;;;;;;14.02;53.23;100083.97;682500;29;1463;-87
2023/12/24 00:06:12;;;;;;;3.43;1.87;;;;;;;14.01;53.29;100086.63;680157;29;1989;-87
2023/12/24 00:06:33;;;;;;;3.27;1.90;;;;;;;13.93;53.45;100069.09;677688;29;1187;-87
2023/12/24 00:06:53;;;;;;;5.00;2.33;;;;;;;13.96;54.19;100076.13;681360;29;1513;-87
2023/12/24 00:07:14;;;;;;;4.60;2.63;;;;;;;14.08;54.23;100093.63;680077;29;1278;-87
2023/12/24 00:07:35;;;;;;;5.40;2.90;;;;;;;13.96;54.25;100095.34;683013;29;804;-87
2023/12/24 00:07:55;;;;;;;3.83;2.53;;;;;;;13.96;54.05;100076.97;682335;28;1538;-86
2023/12/24 00:08:16;;;;;;;3.88;2.40;;;;;;;14.01;54.00;100084.00;682902;29;1304;-86
2023/12/24 00:08:37;;;;;;;4.60;2.40;;;;;;;14.00;54.17;100072.63;680398;29;776;-86
2023/12/24 00:08:57;;;;;;;4.07;2.40;;;;;;;13.98;54.22;100072.63;679844;29;1583;-86
2023/12/24 00:09:18;;;;;;;3.63;2.03;;;;;;;14.10;54.47;100077.03;678089;29;1246;-86
2023/12/24 00:09:38;;;;;;;4.70;1.97;;;;;;;14.12;54.80;100090.16;680305;29;1140;-86
2023/12/24 00:09:59;;;;;;;5.22;2.10;;;;;;;14.02;54.54;100072.63;677448;29;1666;-87
2023/12/24 00:10:20;;;;;;;11.57;2.50;;;;;;;14.04;54.22;100089.22;680277;29;1256;-87
2023/12/24 00:10:40;;;;;;;11.57;2.63;;;;;;;13.98;54.36;100093.63;680307;29;1288;-87
2023/12/24 00:11:01;;;;;;;9.88;2.58;;;;;;;14.07;54.70;100091.88;680971;29;1489;-86
2023/12/24 00:11:22;;;;;;;5.13;2.60;;;;;;;13.95;54.62;100074.38;680400;29;804;-86
2023/12/24 00:11:42;;;;;;;5.90;2.50;;;;;;;13.92;54.34;100083.09;682393;29;1168;-87
2023/12/24 00:12:04;;;;;;;7.87;2.73;;;;;;;13.93;54.12;100090.09;682465;29;1603;-86
2023/12/24 00:12:25;;;;;;;6.75;2.53;;;;;;;13.88;54.02;100086.56;680281;29;847;-87
2023/12/24 00:12:45;;;;;;;5.25;2.60;;;;;;;13.77;53.91;100081.28;680188;29;1533;-85
2023/12/24 00:13:06;;;;;;;2.97;2.30;;;;;;;13.73;53.72;100086.50;679101;29;1288;-86
2023/12/24 00:13:27;;;;;;;3.20;2.40;;;;;;;13.73;54.08;100071.66;680327;29;1234;-86
2023/12/24 00:13:47;;;;;;;3.08;2.22;;;;;;;13.86;54.08;100072.56;680243;29;1252;-86
2023/12/24 00:14:08;;;;;;;3.42;2.25;;;;;;;13.79;54.19;100086.53;680403;29;1252;-84
2023/12/24 00:14:29;;;;;;;3.50;2.17;;;;;;;13.91;54.68;100076.09;682896;29;1165;-86
2023/12/24 00:14:50;;;;;;;4.78;2.40;;;;;;;13.87;54.24;100095.31;685360;28;1584;-85
2023/12/24 00:15:11;;;;;;;5.10;2.60;;;;;;;13.79;54.08;100107.50;682864;29;1107;-85
2023/12/24 00:15:31;;;;;;;4.88;2.88;;;;;;;13.73;54.03;100081.25;683027;29;764;-85
2023/12/24 00:15:52;;;;;;;4.50;2.80;;;;;;;13.74;53.94;100085.63;683653;28;1483;-87
2023/12/24 00:16:14;;;;;;;4.15;2.78;;;;;;;13.84;54.63;100079.56;682927;28;1034;-88
2023/12/24 00:16:39;;;;;;;3.50;2.70;;;;;;;13.90;54.52;100099.69;680299;29;1242;-90
2023/12/24 00:16:59;;;;;;;3.22;2.58;;;;;;;13.84;54.12;100095.31;682682;28;1593;-89
2023/12/24 00:17:20;;;;;;;2.60;2.40;;;;;;;13.92;54.56;100090.97;685514;28;1238;-89
2023/12/24 00:17:41;;;;;;;2.88;2.40;;;;;;;13.91;54.55;100091.84;685580;28;1195;-89
2023/12/24 00:18:01;;;;;;;3.70;2.50;;;;;;;13.87;54.50;100097.06;679891;28;1493;-89
2023/12/24 00:18:22;;;;;;;4.70;3.08;;;;;;;13.80;54.45;100098.78;685575;28;1181;-88
2023/12/24 00:18:42;;;;;;;4.45;3.13;;;;;;;13.86;54.93;100077.81;685679;28;805;-89
2023/12/24 00:19:03;;;;;;;4.70;3.00;;;;;;;13.98;54.69;100104.09;682209;28;1527;-90
2023/12/24 00:19:24;;;;;;;4.32;2.65;;;;;;;13.92;54.72;100093.59;683013;29;1303;-89
2023/12/24 00:19:45;;;;;;;4.40;2.60;;;;;;;13.79;54.19;100081.28;685636;28;1296;-90
2023/12/24 00:20:06;;;;;;;4.20;2.78;;;;;;;13.88;54.42;100091.81;685489;28;1310;-90
2023/12/24 00:20:26;;;;;;;4.22;2.60;;;;;;;13.93;54.65;100084.84;677756;29;1416;-89
2023/12/24 00:20:47;;;;;;;4.53;2.70;;;;;;;13.88;54.17;100102.31;682615;28;1696;-89
2023/12/24 00:21:08;;;;;;;4.10;2.50;;;;;;;13.84;54.13;100074.31;682414;28;1167;-89
2023/12/24 00:21:28;;;;;;;3.90;2.30;;;;;;;13.91;54.13;100104.06;680189;29;1195;-88
2023/12/24 00:21:50;;;;;;;3.08;2.03;;;;;;;13.90;54.24;100108.41;682989;28;1602;-89
2023/12/24 00:22:12;;;;;;;3.60;2.30;;;;;;;13.95;54.33;100088.34;688242;28;1012;-90
2023/12/24 00:22:32;;;;;;;3.05;2.22;;;;;;;13.93;54.38;100086.56;685661;28;1338;-89
2023/12/24 00:23:06;;;;;;;2.63;2.17;;;;;;;13.99;54.42;100097.09;682765;29;1466;-90
2023/12/24 00:23:27;;;;;;;3.30;2.30;;;;;;;14.06;54.28;100090.09;685563;28;1095;-90
2023/12/24 00:23:49;;;;;;;4.13;2.50;;;;;;;13.93;53.94;100095.34;684914;28;1459;-88
2023/12/24 00:24:10;;;;;;;4.32;2.80;;;;;;;14.00;53.99;100084.88;685278;28;1241;-88
2023/12/24 00:24:31;;;;;;;4.95;3.20;;;;;;;13.94;53.76;100114.56;680324;29;1150;-89
2023/12/24 00:24:52;;;;;;;5.13;3.08;;;;;;;14.03;54.24;100095.34;683306;28;1531;-88
2023/12/24 00:25:12;;;;;;;6.27;3.07;;;;;;;14.03;54.30;100072.63;682792;29;1153;-89
2023/12/24 00:25:34;;;;;;;5.82;2.80;;;;;;;14.10;54.22;100087.53;685284;28;1193;-89
2023/12/24 00:25:55;;;;;;;5.57;2.80;;;;;;;14.15;54.03;100084.94;682659;29;1467;-89
2023/12/24 00:26:17;;;;;;;5.18;2.90;;;;;;;14.23;54.30;100088.47;679958;29;1966;-87
2023/12/24 00:26:37;;;;;;;4.80;2.92;;;;;;;14.08;53.69;100077.91;681397;29;1666;-90
2023/12/24 00:26:58;;;;;;;4.33;3.03;;;;;;;14.22;54.00;100105.06;680657;29;1460;-89
2023/12/24 00:27:18;;;;;;;4.47;2.88;;;;;;;14.16;54.21;100084.06;677637;29;1003;-88
2023/12/24 00:27:40;;;;;;;5.13;2.90;;;;;;;14.19;54.16;100096.31;680230;29;1367;-89
2023/12/24 00:28:01;;;;;;;5.00;2.80;;;;;;;14.16;54.25;100091.03;685379;28;1568;-87
2023/12/24 00:28:21;;;;;;;4.07;2.72;;;;;;;14.04;53.81;100091.84;685681;28;1382;-87
2023/12/24 00:28:42;;;;;;;7.35;2.88;;;;;;;14.03;53.63;100087.50;685553;28;752;-89
2023/12/24 00:29:03;;;;;;;8.37;3.00;;;;;;;13.97;53.45;100078.72;687137;28;1472;-89
2023/12/24 00:29:23;;;;;;;8.50;2.90;;;;;;;14.03;53.61;100077.88;682947;29;1278;-89
2023/12/24 00:29:44;;;;;;;5.20;2.72;;;;;;;14.09;53.69;100074.41;683105;28;927;-89
2023/12/24 00:30:05;;;;;;;4.93;2.73;;;;;;;14.18;53.76;100063.06;682495;28;1496;-89
2023/12/24 00:30:26;;;;;;;6.93;3.13;;;;;;;14.12;53.36;100079.66;677597;29;1303;-90
2023/12/24 00:30:50;;;;;;;6.43;2.92;;;;;;;14.20;53.86;100063.97;679851;29;1622;-88
2023/12/24 00:31:11;;;;;;;4.80;2.75;;;;;;;14.24;53.94;100068.31;682789;29;1082;-89
2023/12/24 00:31:32;;;;;;;4.30;2.88;;;;;;;14.23;53.62;100059.59;681329;28;1364;-89
2023/12/24 00:31:53;;;;;;;4.90;3.28;;;;;;;14.24;53.87;100071.84;682690;28;1731;-87
2023/12/24 00:32:14;;;;;;;5.93;3.25;;;;;;;14.17;53.53;100046.44;682786;29;1368;-86
2023/12/24 00:32:35;;;;;;;7.10;3.00;;;;;;;14.15;53.69;100069.19;685540;28;1229;-88
2023/12/24 00:32:57;;;;;;;6.88;2.67;;;;;;;14.09;53.37;100069.16;686631;28;1459;-88
2023/12/24 00:33:18;;;;;;;4.13;2.70;;;;;;;14.18;53.39;100070.94;685379;28;1282;-88
2023/12/24 00:33:39;;;;;;;4.90;3.00;;;;;;;14.20;53.51;100061.34;685605;28;914;-88
2023/12/24 00:33:59;;;;;;;4.80;3.17;;;;;;;14.18;53.59;100087.56;686717;28;1444;-87
2023/12/24 00:34:20;;;;;;;4.60;2.97;;;;;;;14.29;54.03;100084.06;685567;28;1156;-88
2023/12/24 00:34:40;;;;;;;6.72;3.20;;;;;;;14.15;53.84;100074.44;680758;29;1239;-89
2023/12/24 00:35:01;;;;;;;10.77;3.30;;;;;;;14.20;53.60;100069.22;679251;29;1551;-88
2023/12/24 00:35:22;;;;;;;12.07;3.27;;;;;;;14.11;53.50;100070.94;682809;29;1166;-88
2023/12/24 00:35:42;;;;;;;10.45;3.05;;;;;;;14.22;53.53;100081.47;685594;28;1228;-88
2023/12/24 00:36:03;;;;;;;6.03;2.65;;;;;;;14.22;53.56;100065.72;683090;28;1548;-88
2023/12/24 00:36:25;;;;;;;4.78;2.70;;;;;;;14.26;53.81;100061.34;683055;29;808;-87
2023/12/24 00:36:47;;;;;;;5.15;2.85;;;;;;;14.18;54.01;100061.31;681594;29;1587;-88
2023/12/24 00:37:07;;;;;;;4.77;3.00;;;;;;;14.24;53.66;100065.69;684817;28;1281;-88
2023/12/24 00:37:28;;;;;;;5.75;3.05;;;;;;;14.16;54.14;100070.06;682932;29;1271;-88
2023/12/24 00:37:49;;;;;;;5.15;3.03;;;;;;;14.15;53.93;100079.69;685306;28;1516;-88
2023/12/24 00:38:10;;;;;;;6.50;3.33;;;;;;;14.15;54.39;100079.69;679928;29;1597;-88
2023/12/24 00:38:31;;;;;;;5.90;3.50;;;;;;;14.20;54.34;100083.19;685425;28;783;-87
2023/12/24 00:38:52;;;;;;;5.40;3.30;;;;;;;14.22;54.17;100094.56;682534;29;1456;-88
2023/12/24 00:39:13;;;;;;;4.57;3.30;;;;;;;14.18;54.19;100094.53;685418;28;1543;-88
2023/12/24 00:39:34;;;;;;;4.33;3.10;;;;;;;14.20;54.24;100113.81;680278;29;1233;-88
2023/12/24 00:39:54;;;;;;;4.45;3.10;;;;;;;14.09;53.64;100075.25;682218;28;1620;-89
2023/12/24 00:40:19;;;;;;;4.13;2.70;;;;;;;14.15;53.75;100092.81;684770;28;1236;-89
2023/12/24 00:40:39;;;;;;;4.32;2.70;;;;;;;14.25;54.02;100110.31;680284;28;1357;-88
2023/12/24 00:41:00;;;;;;;4.27;2.63;;;;;;;14.15;54.03;100084.94;682569;29;1560;-89
2023/12/24 00:41:20;;;;;;;3.80;2.63;;;;;;;14.09;53.66;100092.75;680305;29;1193;-87
2023/12/24 00:41:41;;;;;;;3.20;2.50;;;;;;;14.05;53.46;100083.13;682389;29;827;-87
2023/12/24 00:42:02;;;;;;;3.10;2.40;;;;;;;14.19;53.52;100088.44;682569;29;1280;-88
2023/12/24 00:42:25;;;;;;;3.33;2.45;;;;;;;14.18;53.96;100077.06;685518;28;1121;-88
2023/12/24 00:42:46;;;;;;;4.70;2.75;;;;;;;14.23;53.88;100083.22;685634;28;1203;-88
2023/12/24 00:43:06;;;;;;;5.30;2.85;;;;;;;14.28;54.01;100079.69;682489;28;1476;-89
2023/12/24 00:43:27;;;;;;;5.63;3.17;;;;;;;14.24;53.75;100074.47;682779;29;1254;-88
2023/12/24 00:43:48;;;;;;;4.17;2.90;;;;;;;14.28;53.66;100080.59;685397;28;1594;-88
2023/12/24 00:44:08;;;;;;;3.88;2.80;;;;;;;14.29;53.80;100069.22;682715;29;1139;-88
2023/12/24 00:44:29;;;;;;;3.17;2.60;;;;;;;14.32;53.72;100065.72;680261;28;1199;-89
2023/12/24 00:44:49;;;;;;;2.97;2.67;;;;;;;14.21;53.93;100071.81;685341;28;1523;-88
2023/12/24 00:45:11;;;;;;;3.83;3.10;;;;;;;14.35;53.87;100087.59;684382;28;1193;-88
2023/12/24 00:45:32;;;;;;;5.00;3.10;;;;;;;14.30;54.21;100073.59;684999;28;1338;-89
2023/12/24 00:45:52;;;;;;;5.93;3.05;;;;;;;14.24;53.50;100095.44;682656;28;1472;-89
2023/12/24 00:46:15;;;;;;;5.45;2.88;;;;;;;14.24;53.90;100082.34;682836;29;1981;-88
2023/12/24 00:46:36;;;;;;;5.00;3.10;;;;;;;14.11;53.49;100068.31;682796;28;1276;-89
2023/12/24 00:46:56;;;;;;;5.00;3.00;;;;;;;14.27;53.72;100067.47;684835;28;1481;-88
2023/12/24 00:47:17;;;;;;;6.43;3.40;;;;;;;14.26;53.81;100066.59;682772;29;951;-88
2023/12/24 00:47:39;;;;;;;8.90;3.43;;;;;;;14.45;53.97;100085.84;682974;29;851;-88
2023/12/24 00:47:59;;;;;;;9.07;3.53;;;;;;;14.34;54.07;100074.47;682542;28;1595;-88
2023/12/24 00:48:20;;;;;;;7.53;3.20;;;;;;;14.25;53.90;100075.31;682541;28;1289;-88
2023/12/24 00:48:41;;;;;;;4.90;3.00;;;;;;;14.21;53.63;100084.94;680273;29;1363;-88
2023/12/24 00:49:01;;;;;;;5.07;3.20;;;;;;;14.15;53.33;100074.44;683819;28;1469;-88
2023/12/24 00:49:23;;;;;;;4.55;3.00;;;;;;;14.26;53.74;100061.34;686064;28;1062;-88
2023/12/24 00:49:44;;;;;;;7.88;2.92;;;;;;;14.30;53.71;100109.44;685589;28;1234;-89
2023/12/24 00:50:07;;;;;;;11.50;2.90;;;;;;;14.30;53.83;100104.19;683616;28;1474;-88
2023/12/24 00:50:28;;;;;;;11.38;3.17;;;;;;;14.10;53.28;100086.63;680281;29;824;-88
2023/12/24 00:50:48;;;;;;;3.40;2.80;;;;;;;14.17;53.53;100088.44;680063;29;1529;-87
2023/12/24 00:51:09;;;;;;;3.20;2.70;;;;;;;14.19;53.76;100083.19;682907;29;1026;-88
2023/12/24 00:51:30;;;;;;;3.42;2.55;;;;;;;14.08;53.76;100094.50;682832;28;1182;-88
2023/12/24 00:51:51;;;;;;;4.27;2.87;;;;;;;14.14;54.08;100080.56;681736;28;1069;-88
2023/12/24 00:52:12;;;;;;;5.72;2.70;;;;;;;14.16;54.14;100088.41;677523;29;1356;-88
2023/12/24 00:52:33;;;;;;;6.18;2.92;;;;;;;14.21;54.01;100081.44;677452;29;788;-88
2023/12/24 00:52:54;;;;;;;6.45;2.80;;;;;;;14.26;54.02;100077.09;677366;29;1465;-89
2023/12/24 00:53:15;;;;;;;5.53;2.97;;;;;;;14.35;54.11;100082.34;680215;29;1102;-89
2023/12/24 00:53:36;;;;;;;5.32;2.80;;;;;;;14.34;54.18;100091.09;685577;28;1091;-88
2023/12/24 00:53:57;;;;;;;5.68;2.78;;;;;;;14.32;53.83;100081.47;682510;28;1502;-89
2023/12/24 00:54:17;;;;;;;6.03;2.83;;;;;;;14.40;54.44;100084.97;677603;29;1411;-88
2023/12/24 00:54:39;;;;;;;6.63;3.00;;;;;;;14.41;54.07;100081.47;677611;29;1236;-89
2023/12/24 00:55:00;;;;;;;5.90;3.10;;;;;;;14.37;54.39;100084.94;681492;28;1468;-89
2023/12/24 00:55:21;;;;;;;5.55;3.17;;;;;;;14.39;54.44;100093.72;682902;29;1170;-88
2023/12/24 00:55:41;;;;;;;5.53;3.15;;;;;;;14.34;54.21;100090.22;680180;28;1243;-88
2023/12/24 00:56:02;;;;;;;4.80;3.05;;;;;;;14.23;53.95;100088.47;677244;29;1462;-88
2023/12/24 00:56:24;;;;;;;3.45;2.72;;;;;;;14.27;54.09;100089.34;680219;29;1026;-88
2023/12/24 00:56:44;;;;;;;4.77;2.70;;;;;;;14.21;53.88;100090.19;680205;29;809;-89
2023/12/24 00:57:05;;;;;;;6.72;2.95;;;;;;;14.30;54.04;100098.94;682232;28;1485;-88
2023/12/24 00:57:26;;;;;;;7.60;3.35;;;;;;;14.35;54.60;100091.97;682981;28;713;-88
2023/12/24 00:57:47;;;;;;;6.55;3.42;;;;;;;14.31;54.32;100103.34;682992;29;752;-88
2023/12/24 00:58:07;;;;;;;5.80;3.40;;;;;;;14.30;54.25;100093.69;682260;28;1581;-88
2023/12/24 00:58:28;;;;;;;7.05;3.13;;;;;;;14.33;54.08;100096.34;679931;29;1321;-89
2023/12/24 00:58:49;;;;;;;6.82;3.10;;;;;;;14.27;53.89;100109.44;679882;29;1563;-87
2023/12/24 00:59:09;;;;;;;6.70;3.10;;;;;;;14.10;53.67;100087.53;682759;28;1301;-88
2023/12/24 00:59:30;;;;;;;4.60;3.10;;;;;;;14.10;54.04;100086.63;680157;29;1214;-89
2023/12/24 00:59:50;;;;;;;5.88;3.00;;;;;;;14.11;53.75;100080.53;681356;29;1527;-89
2023/12/24 01:00:11;;;;;;;5.87;2.90;;;;;;;14.34;53.91;100092.84;682691;28;1404;-89
2023/12/24 01:00:32;;;;;;;8.55;2.90;;;;;;;14.35;53.62;100094.59;682778;29;1367;-89
2023/12/24 01:00:53;;;;;;;8.52;3.08;;;;;;;14.29;53.65;100077.09;679174;29;1501;-89
2023/12/24 01:01:13;;;;;;;11.43;3.45;;;;;;;14.40;53.86;100084.97;680133;29;1016;-89
2023/12/24 01:01:34;;;;;;;11.30;3.40;;;;;;;14.24;53.29;100071.84;682161;29;1236;-89
2023/12/24 01:01:55;;;;;;;9.55;3.15;;;;;;;14.28;53.59;100070.09;687850;28;1466;-89
2023/12/24 01:02:16;;;;;;;5.20;2.90;;;;;;;14.21;53.50;100090.19;680044;29;1140;-89
2023/12/24 01:02:37;;;;;;;4.43;3.00;;;;;;;14.25;53.63;100070.97;682891;28;1243;-90
2023/12/24 01:02:58;;;;;;;3.97;2.75;;;;;;;14.36;53.93;100070.09;687811;28;1466;-88
2023/12/24 01:03:19;;;;;;;4.80;3.00;;;;;;;14.43;53.79;100090.22;680111;29;1448;-88
2023/12/24 01:03:40;;;;;;;4.72;3.00;;;;;;;14.30;53.38;100094.56;680105;29;1474;-89
2023/12/24 01:04:01;;;;;;;7.00;3.45;;;;;;;14.32;53.53;100097.22;682559;28;1575;-88
2023/12/24 01:04:21;;;;;;;6.70;3.50;;;;;;;14.38;53.66;100081.47;685404;28;1075;-88
2023/12/24 01:04:42;;;;;;;7.25;3.58;;;;;;;14.27;53.34;100093.69;682878;29;796;-88
2023/12/24 01:05:04;;;;;;;7.10;3.30;;;;;;;14.39;53.38;100080.59;682462;28;1555;-89
2023/12/24 01:05:25;;;;;;;6.28;3.17;;;;;;;14.41;53.40;100086.72;680255;29;1100;-89
2023/12/24 01:05:45;;;;;;;5.57;2.90;;;;;;;14.41;53.21;100098.97;677408;29;1210;-89
2023/12/24 01:06:06;;;;;;;4.80;2.85;;;;;;;14.27;53.23;100068.34;679519;29;1478;-89
2023/12/24 01:06:27;;;;;;;5.82;3.20;;;;;;;14.33;53.48;100078.81;685393;28;1923;-89
2023/12/24 01:06:49;;;;;;;6.15;3.53;;;;;;;14.37;54.35;100074.44;681007;29;1652;-88
2023/12/24 01:07:10;;;;;;;6.60;3.60;;;;;;;14.42;54.09;100080.59;685365;28;1094;-89
2023/12/24 01:07:32;;;;;;;5.03;3.10;;;;;;;14.38;54.12;100069.22;685542;28;1233;-89
2023/12/24 01:07:52;;;;;;;3.97;2.67;;;;;;;14.39;53.81;100073.59;686064;28;1805;-89
2023/12/24 01:08:14;;;;;;;4.83;2.33;;;;;;;14.37;53.74;100074.44;685436;28;1122;-88
2023/12/24 01:08:34;;;;;;;8.30;2.60;;;;;;;14.47;53.98;100076.25;682702;29;1128;-90
2023/12/24 01:08:55;;;;;;;8.33;2.80;;;;;;;14.38;53.94;100086.72;684461;28;1503;-88
2023/12/24 01:09:15;;;;;;;6.68;3.17;;;;;;;14.40;53.92;100084.97;680098;29;1127;-89
2023/12/24 01:09:37;;;;;;;4.22;2.88;;;;;;;14.35;53.73;100077.09;680369;29;895;-89
2023/12/24 01:09:58;;;;;;;6.22;2.90;;;;;;;14.36;53.53;100075.34;679854;29;1571;-89
2023/12/24 01:10:18;;;;;;;7.70;3.30;;;;;;;14.34;53.27;100087.59;682830;29;1076;-89
2023/12/24 01:10:39;;;;;;;10.57;3.58;;;;;;;14.39;53.75;100091.09;685386;28;1401;-88
2023/12/24 01:11:00;;;;;;;9.20;3.20;;;;;;;14.34;53.91;100069.22;685236;28;1479;-88
2023/12/24 01:11:20;;;;;;;8.53;3.03;;;;;;;14.53;53.90;100091.97;682841;29;1080;-88
2023/12/24 01:11:41;;;;;;;6.72;3.10;;;;;;;14.53;53.82;100097.22;679726;29;718;-86
2023/12/24 01:12:02;;;;;;;8.40;3.70;;;;;;;14.36;53.60;100072.72;682411;28;1550;-86
2023/12/24 01:12:23;;;;;;;8.32;3.70;;;;;;;14.41;53.57;100088.47;682719;29;1251;-86
2023/12/24 01:12:43;;;;;;;7.47;3.90;;;;;;;14.41;53.30;100064.84;682758;28;1161;-86
2023/12/24 01:13:04;;;;;;;5.70;3.20;;;;;;;14.25;53.37;100081.44;679844;29;1462;-87
2023/12/24 01:13:25;;;;;;;6.43;3.33;;;;;;;14.34;53.40;100079.72;680218;29;799;-86
2023/12/24 01:13:45;;;;;;;5.50;3.20;;;;;;;14.42;53.57;100070.09;680255;29;792;-86
2023/12/24 01:14:06;;;;;;;5.53;3.47;;;;;;;14.43;53.75;100068.38;679902;29;1601;-86
2023/12/24 01:14:27;;;;;;;3.57;3.00;;;;;;;14.50;53.61;100068.34;682845;28;1129;-87
2023/12/24 01:14:47;;;;;;;4.38;2.80;;;;;;;14.43;53.77;100069.22;682595;29;1257;-86
2023/12/24 01:15:09;;;;;;;3.83;2.70;;;;;;;14.39;53.26;100085.84;678512;29;1575;-85
2023/12/24 01:15:30;;;;;;;4.80;2.50;;;;;;;14.39;53.28;100064.84;674886;29;1365;-86
2023/12/24 01:15:52;;;;;;;5.57;2.80;;;;;;;14.31;52.53;100079.72;682440;28;1718;-85
2023/12/24 01:16:12;;;;;;;7.00;3.00;;;;;;;14.34;54.09;100090.22;685392;28;1127;-85
2023/12/24 01:16:39;;;;;;;5.63;3.20;;;;;;;14.42;53.78;100080.59;680239;28;1103;-86
2023/12/24 01:16:59;;;;;;;4.68;2.97;;;;;;;14.53;54.08;100096.38;682422;29;1522;-86
2023/12/24 01:17:20;;;;;;;5.20;3.28;;;;;;;14.50;53.60;100094.59;682755;29;1167;-86
2023/12/24 01:17:40;;;;;;;5.28;3.28;;;;;;;14.47;53.73;100076.25;680117;29;1224;-86
2023/12/24 01:18:01;;;;;;;6.50;3.50;;;;;;;14.53;53.10;100070.97;680436;29;1484;-87
2023/12/24 01:18:22;;;;;;;5.03;3.20;;;;;;;14.49;53.74;100077.09;685419;28;1118;-86
2023/12/24 01:18:43;;;;;;;5.07;3.20;;;;;;;14.55;53.88;100093.75;685437;28;1172;-86
2023/12/24 01:19:03;;;;;;;6.47;3.30;;;;;;;14.59;53.55;100084.97;683215;28;1456;-87
2023/12/24 01:19:24;;;;;;;6.40;3.47;;;;;;;14.46;52.73;100079.75;683053;29;768;-86
2023/12/24 01:19:45;;;;;;;7.22;3.38;;;;;;;14.60;53.36;100074.50;682874;29;847;-87
2023/12/24 01:20:16;;;;;;;6.10;3.30;;;;;;;14.63;53.30;100086.75;684721;28;1578;-86
2023/12/24 01:20:36;;;;;;;6.60;3.30;;;;;;;14.63;53.14;100084.97;686902;28;850;-86
2023/12/24 01:20:57;;;;;;;4.40;3.13;;;;;;;14.70;53.53;100077.09;679827;29;1602;-86
2023/12/24 01:21:17;;;;;;;4.72;3.30;;;;;;;14.65;53.33;100069.22;685432;28;1199;-87
2023/12/24 01:21:38;;;;;;;5.72;3.47;;;;;;;14.61;52.62;100084.09;684843;28;740;-86
2023/12/24 01:21:59;;;;;;;5.83;3.30;;;;;;;14.57;52.88;100061.34;686325;28;1471;-85
2023/12/24 01:22:20;;;;;;;5.25;3.10;;;;;;;14.68;53.33;100116.50;684424;28;1366;-87
2023/12/24 01:22:40;;;;;;;4.50;3.00;;;;;;;14.56;52.92;100066.63;682763;29;906;-86
2023/12/24 01:23:01;;;;;;;6.10;3.17;;;;;;;14.61;52.65;100075.34;682458;28;1474;-87
2023/12/24 01:23:22;;;;;;;7.67;3.40;;;;;;;14.68;53.22;100082.34;685576;28;855;-87
2023/12/24 01:23:43;;;;;;;7.30;3.10;;;;;;;14.52;52.63;100078.84;685409;28;1364;-86
2023/12/24 01:24:04;;;;;;;5.13;2.80;;;;;;;14.65;53.16;100069.22;679912;29;1464;-87
2023/12/24 01:24:25;;;;;;;3.40;2.42;;;;;;;14.61;53.02;100077.97;680212;29;1139;-86
2023/12/24 01:24:46;;;;;;;3.60;2.50;;;;;;;14.57;52.88;100070.97;680788;29;808;-86
2023/12/24 01:25:08;;;;;;;4.38;2.70;;;;;;;14.56;52.84;100069.25;682365;28;1648;-86
2023/12/24 01:25:29;;;;;;;4.88;3.08;;;;;;;14.44;52.62;100060.47;683007;28;828;-85
2023/12/24 01:25:50;;;;;;;4.72;3.00;;;;;;;14.34;52.33;100070.09;685124;28;1539;-84
2023/12/24 01:26:11;;;;;;;6.50;3.55;;;;;;;14.50;52.96;100076.22;687999;28;1954;-87
2023/12/24 01:26:34;;;;;;;7.72;3.70;;;;;;;14.63;52.76;100077.09;685457;28;851;-85
2023/12/24 01:26:55;;;;;;;7.32;3.90;;;;;;;14.53;52.19;100076.22;682392;28;1488;-85
2023/12/24 01:27:15;;;;;;;6.35;3.85;;;;;;;14.61;52.48;100077.97;682712;28;1372;-86
2023/12/24 01:27:37;;;;;;;5.80;3.50;;;;;;;14.60;53.15;100061.34;680137;29;836;-86
2023/12/24 01:27:58;;;;;;;5.78;3.47;;;;;;;14.55;52.86;100046.50;682597;29;1509;-85
2023/12/24 01:28:18;;;;;;;4.85;3.20;;;;;;;14.49;52.92;100053.47;682675;29;1146;-86
2023/12/24 01:28:40;;;;;;;5.37;3.33;;;;;;;14.64;52.90;100072.75;682906;29;858;-86
2023/12/24 01:29:01;;;;;;;5.30;3.20;;;;;;;14.58;52.80;100072.72;683741;28;1610;-86
2023/12/24 01:29:21;;;;;;;5.83;3.57;;;;;;;14.57;53.35;100042.09;682632;29;1327;-84
2023/12/24 01:29:43;;;;;;;4.80;3.63;;;;;;;14.58;53.73;100054.34;680194;29;879;-84
2023/12/24 01:30:04;;;;;;;5.60;4.00;;;;;;;14.62;53.46;100064.00;682350;29;1493;-86
2023/12/24 01:30:25;;;;;;;5.93;3.85;;;;;;;14.69;53.58;100064.84;682740;29;1358;-85
2023/12/24 01:30:46;;;;;;;6.43;4.03;;;;;;;14.65;53.73;100062.22;680079;29;1613;-86
2023/12/24 01:31:07;;;;;;;6.43;3.92;;;;;;;14.74;53.70;100052.63;682538;28;1688;-85
2023/12/24 01:31:28;;;;;;;6.07;4.10;;;;;;;14.75;53.72;100055.22;682743;29;1166;-86
2023/12/24 01:31:48;;;;;;;5.83;4.00;;;;;;;14.79;54.12;100067.47;682192;29;772;-86
2023/12/24 01:32:09;;;;;;;4.88;3.90;;;;;;;14.74;53.17;100058.72;682298;28;1481;-86
2023/12/24 01:32:30;;;;;;;5.18;3.80;;;;;;;14.71;53.16;100074.50;683166;28;1599;-86
2023/12/24 01:32:51;;;;;;;5.20;3.95;;;;;;;14.67;53.08;100056.97;682638;28;1590;-85
2023/12/24 01:33:12;;;;;;;6.03;4.00;;;;;;;14.69;53.16;100078.84;682679;28;1348;-84
2023/12/24 01:33:33;;;;;;;7.18;4.00;;;;;;;14.63;52.73;100092.00;682671;29;1243;-86
2023/12/24 01:33:54;;;;;;;7.00;3.90;;;;;;;14.60;52.57;100086.72;685134;28;1749;-85
2023/12/24 01:34:15;;;;;;;6.22;3.90;;;;;;;14.72;53.04;100064.84;682824;28;1175;-86
2023/12/24 01:34:36;;;;;;;5.57;3.67;;;;;;;14.66;52.88;100060.47;679998;29;1338;-85
2023/12/24 01:34:58;;;;;;;6.37;3.30;;;;;;;14.64;52.43;100085.88;681195;29;1470;-88
2023/12/24 01:35:19;;;;;;;5.63;3.17;;;;;;;14.65;52.84;100061.34;678462;29;840;-86
2023/12/24 01:35:43;;;;;;;6.57;3.50;;;;;;;14.66;52.56;100070.97;682845;28;934;-86
2023/12/24 01:36:04;;;;;;;10.50;4.05;;;;;;;14.75;52.77;100064.84;680392;28;1623;-86
2023/12/24 01:36:25;;;;;;;10.43;4.00;;;;;;;14.70;52.36;100067.50;677546;29;1168;-85
2023/12/24 01:36:45;;;;;;;9.65;3.85;;;;;;;14.68;52.13;100068.38;677566;29;1184;-86
2023/12/24 01:37:06;;;;;;;5.50;3.58;;;;;;;14.77;52.57;100061.34;681872;29;1535;-86
2023/12/24 01:37:27;;;;;;;5.20;3.60;;;;;;;14.78;52.85;100060.47;685373;28;1824;-86
2023/12/24 01:37:47;;;;;;;5.20;3.47;;;;;;;14.71;52.58;100057.84;682689;29;1242;-86
2023/12/24 01:38:08;;;;;;;4.72;3.20;;;;;;;14.65;52.39;100042.97;685431;28;1535;-85
2023/12/24 01:38:28;;;;;;;6.50;3.50;;;;;;;14.74;52.51;100057.88;682799;29;1021;-86
2023/12/24 01:38:49;;;;;;;6.30;3.60;;;;;;;14.68;52.71;100057.84;680165;29;788;-86
2023/12/24 01:39:10;;;;;;;6.23;3.60;;;;;;;14.69;52.54;100078.84;679822;29;1505;-85
2023/12/24 01:39:32;;;;;;;6.20;3.60;;;;;;;14.62;52.21;100070.09;680137;29;800;-86
2023/12/24 01:39:53;;;;;;;7.55;3.83;;;;;;;14.63;52.14;100077.09;680015;29;1644;-86